Open Full Screen Window  High Contrast Mode
Wind Gusting 16 knots
13
April 17, 2014 2:46 PM EDT
Weather Information
Wind Direction
  150 °
Wind Speed
  13 kt (15 mph)
Wind Gust
  16 kt (18 mph)
Variable Wind
130°
190°
Altimeter
30.20 in
Visibility
10 SM
Temperature
15° C
59° F
Dewpoint
-01° C
30° F
Humidity
34%
1hr Rain Fall
00.00 in.
24hr Rain Fall
00.00 in.
Sky Condition
Clear
VFR

METAR KIKW 171846Z AUTO 15013G16KT 130V190 10SM CLR 15/M01 A3020 RMK AO2 T01501011

*Background is not an actual portrayal of the airport.